Time;durP1;ratioP1;P1;durP2;ratioP2;P2;SDS_P1;SDS_P2;PMS_P1;PMS_P2;Temp;Humidity;BMP_temperature;BMP_pressure;BME280_temperature;BME280_humidity;BME280_pressure;Samples;Min_cycle;Max_cycle;Signal;HPM_P1;HPM_P2
2023/04/08 00:01:10;;;;;;;4.07;2.50;;;8.90;75.00;;;;;;5073035;28;20177;-69
2023/04/08 00:03:37;;;;;;;4.50;3.05;;;8.80;74.60;;;;;;5073281;28;20194;-70
2023/04/08 00:06:05;;;;;;;9.35;3.67;;;8.80;74.30;;;;;;5068878;28;20189;-69
2023/04/08 00:08:32;;;;;;;4.78;3.47;;;8.80;74.60;;;;;;5073374;28;20193;-70
2023/04/08 00:11:01;;;;;;;5.10;3.33;;;8.80;75.10;;;;;;5065065;28;20588;-69
2023/04/08 00:13:28;;;;;;;5.55;2.75;;;8.80;75.90;;;;;;5054777;28;20194;-69
2023/04/08 00:15:55;;;;;;;5.30;3.80;;;8.80;75.60;;;;;;5072334;28;20185;-69
2023/04/08 00:18:22;;;;;;;5.22;3.53;;;8.70;76.00;;;;;;5074811;28;20640;-69
2023/04/08 00:20:49;;;;;;;4.43;2.80;;;8.80;76.70;;;;;;5074848;28;20554;-69
2023/04/08 00:23:16;;;;;;;5.40;3.67;;;8.80;76.80;;;;;;5074792;28;20190;-69
2023/04/08 00:25:45;;;;;;;6.63;3.88;;;8.80;76.60;;;;;;5075153;28;20272;-69
2023/04/08 00:28:14;;;;;;;4.82;3.13;;;8.80;76.90;;;;;;5074415;28;20218;-69
2023/04/08 00:30:41;;;;;;;5.47;3.42;;;8.80;77.60;;;;;;5074401;28;20193;-69
2023/04/08 00:33:08;;;;;;;6.13;4.15;;;8.80;78.40;;;;;;5073971;28;20194;-69
2023/04/08 00:35:36;;;;;;;7.30;3.80;;;8.80;78.40;;;;;;5074429;28;20240;-69
2023/04/08 00:38:06;;;;;;;5.05;3.65;;;8.80;78.60;;;;;;5074134;28;20276;-70
2023/04/08 00:40:34;;;;;;;4.47;3.35;;;8.80;78.80;;;;;;5074446;28;20243;-69
2023/04/08 00:43:01;;;;;;;5.70;3.88;;;8.80;78.40;;;;;;5074201;28;20201;-69
2023/04/08 00:45:30;;;;;;;4.95;3.28;;;8.80;78.30;;;;;;5074365;28;20213;-69
2023/04/08 00:47:57;;;;;;;5.10;3.00;;;8.80;78.40;;;;;;5074288;28;20226;-69
2023/04/08 00:50:25;;;;;;;6.50;3.67;;;8.70;79.00;;;;;;5074294;28;20618;-69
2023/04/08 00:52:52;;;;;;;4.93;3.40;;;8.70;79.80;;;;;;5074277;28;20190;-69
2023/04/08 00:55:19;;;;;;;4.30;2.83;;;8.70;80.30;;;;;;5074331;28;20551;-69
2023/04/08 00:57:47;;;;;;;5.05;3.17;;;8.70;79.80;;;;;;5074333;28;20194;-69
2023/04/08 01:00:16;;;;;;;5.18;3.58;;;8.70;79.60;;;;;;5073581;28;20190;-69
2023/04/08 01:02:51;;;;;;;4.80;2.88;;;8.70;79.20;;;;;;5074592;28;20285;-69
2023/04/08 01:05:27;;;;;;;6.43;4.65;;;8.70;78.80;;;;;;5073770;28;20276;-69
2023/04/08 01:07:55;;;;;;;5.30;3.03;;;8.80;78.20;;;;;;5073992;28;20217;-69
2023/04/08 01:10:26;;;;;;;5.13;3.50;;;8.80;78.10;;;;;;5073319;28;20218;-71
2023/04/08 01:12:57;;;;;;;5.45;4.03;;;8.80;78.60;;;;;;5074335;28;20174;-71
2023/04/08 01:15:28;;;;;;;4.47;3.33;;;8.80;78.00;;;;;;5073441;28;20200;-69
2023/04/08 01:17:59;;;;;;;3.97;3.15;;;8.80;77.60;;;;;;5074045;28;20199;-69
2023/04/08 01:20:28;;;;;;;5.93;3.42;;;8.80;77.40;;;;;;5073551;28;20320;-69
2023/04/08 01:23:06;;;;;;;4.75;3.30;;;8.80;77.60;;;;;;5073721;28;20200;-69
2023/04/08 01:25:35;;;;;;;6.28;3.50;;;8.80;77.70;;;;;;5053923;28;20178;-69
2023/04/08 01:28:07;;;;;;;4.88;3.35;;;8.80;77.20;;;;;;5053550;28;20596;-71
2023/04/08 01:30:35;;;;;;;4.95;3.30;;;8.80;77.30;;;;;;5053800;28;20202;-68
2023/04/08 01:33:05;;;;;;;4.35;3.15;;;8.80;77.30;;;;;;5053512;28;20197;-71
2023/04/08 01:35:36;;;;;;;5.03;3.60;;;8.80;77.20;;;;;;5072514;28;20186;-68
2023/04/08 01:38:05;;;;;;;10.15;4.78;;;8.80;76.90;;;;;;5073347;28;20716;-72
2023/04/08 01:40:34;;;;;;;4.45;3.60;;;8.80;77.10;;;;;;5053408;28;20190;-69
2023/04/08 01:43:06;;;;;;;5.07;3.38;;;8.80;77.50;;;;;;5064395;28;20185;-69
2023/04/08 01:45:39;;;;;;;4.80;3.70;;;8.80;77.60;;;;;;5072581;28;20240;-68
2023/04/08 01:48:14;;;;;;;4.70;3.78;;;8.80;77.20;;;;;;5072470;28;20271;-73
2023/04/08 01:50:50;;;;;;;6.65;4.07;;;8.80;77.20;;;;;;5053625;28;20193;-68
2023/04/08 01:53:18;;;;;;;6.30;4.47;;;8.80;77.00;;;;;;5064726;28;20716;-69
2023/04/08 01:55:52;;;;;;;4.60;3.95;;;8.80;77.10;;;;;;5073329;28;20197;-69
2023/04/08 01:58:23;;;;;;;4.47;3.60;;;8.80;77.10;;;;;;5072403;28;20185;-71
2023/04/08 02:00:54;;;;;;;4.70;3.47;;;8.70;76.90;;;;;;5073085;28;20645;-68
2023/04/08 02:03:25;;;;;;;4.07;3.53;;;8.70;77.30;;;;;;5072503;28;20217;-68
2023/04/08 02:05:52;;;;;;;4.93;3.20;;;8.70;77.60;;;;;;5073017;28;20197;-68
2023/04/08 02:08:20;;;;;;;4.78;3.83;;;8.70;77.70;;;;;;5071992;28;20684;-71
2023/04/08 02:10:47;;;;;;;4.90;3.78;;;8.70;77.70;;;;;;5072654;28;20656;-69
2023/04/08 02:13:15;;;;;;;5.57;4.28;;;8.70;77.20;;;;;;5072622;28;20194;-69
2023/04/08 02:15:52;;;;;;;6.00;4.50;;;8.70;77.60;;;;;;5072589;28;20656;-69
2023/04/08 02:18:26;;;;;;;6.07;3.75;;;8.70;77.80;;;;;;5072163;28;20193;-70
2023/04/08 02:20:58;;;;;;;4.38;3.65;;;8.60;77.40;;;;;;5072882;28;20225;-69
2023/04/08 02:23:29;;;;;;;6.05;4.18;;;8.60;76.90;;;;;;5072281;28;20201;-69
2023/04/08 02:25:57;;;;;;;6.70;4.40;;;8.60;77.20;;;;;;5072601;28;20190;-69
2023/04/08 02:28:26;;;;;;;7.47;5.05;;;8.50;77.50;;;;;;5072205;28;20218;-69
2023/04/08 02:30:59;;;;;;;8.93;6.05;;;8.50;77.30;;;;;;5071848;28;20189;-69
2023/04/08 02:33:28;;;;;;;11.45;6.00;;;8.50;77.30;;;;;;5072110;28;20264;-69
2023/04/08 02:35:56;;;;;;;8.10;5.70;;;8.50;78.10;;;;;;5072314;28;20185;-69
2023/04/08 02:38:28;;;;;;;7.20;5.30;;;8.40;78.30;;;;;;5072638;28;20211;-69
2023/04/08 02:40:58;;;;;;;7.50;4.65;;;8.40;78.40;;;;;;5072073;28;20186;-69
2023/04/08 02:43:31;;;;;;;6.68;4.57;;;8.40;78.40;;;;;;5072476;28;20683;-69
2023/04/08 02:46:02;;;;;;;5.80;4.72;;;8.40;78.90;;;;;;5071960;28;20576;-71
2023/04/08 02:48:29;;;;;;;7.65;4.95;;;8.30;79.10;;;;;;5072313;28;20251;-69
2023/04/08 02:50:57;;;;;;;5.20;3.85;;;8.40;79.00;;;;;;5072167;28;20526;-69
2023/04/08 02:53:25;;;;;;;7.45;4.68;;;8.40;78.80;;;;;;5072247;28;20247;-69
2023/04/08 02:55:55;;;;;;;4.72;3.55;;;8.30;78.60;;;;;;5071217;28;20253;-69
2023/04/08 02:58:24;;;;;;;4.75;3.58;;;8.30;78.00;;;;;;5072440;28;20193;-69
2023/04/08 03:00:52;;;;;;;5.97;4.25;;;8.30;78.70;;;;;;5071693;28;20197;-69
2023/04/08 03:03:28;;;;;;;6.97;3.97;;;8.30;78.70;;;;;;5072314;28;20204;-71
2023/04/08 03:05:55;;;;;;;5.93;4.60;;;8.30;78.90;;;;;;5072007;28;20196;-69
2023/04/08 03:08:23;;;;;;;6.22;4.15;;;8.30;78.80;;;;;;5072019;28;20308;-69
2023/04/08 03:10:53;;;;;;;5.15;3.45;;;8.30;78.60;;;;;;5071679;28;20256;-69
2023/04/08 03:13:24;;;;;;;6.97;4.28;;;8.20;78.60;;;;;;5072616;28;20186;-69
2023/04/08 03:15:53;;;;;;;5.72;3.90;;;8.20;78.60;;;;;;5071840;28;20197;-69
2023/04/08 03:18:22;;;;;;;5.40;4.00;;;8.10;79.10;;;;;;5072264;28;20192;-69
2023/04/08 03:20:49;;;;;;;5.60;4.10;;;8.10;78.70;;;;;;5071681;28;20190;-68
2023/04/08 03:23:16;;;;;;;5.75;4.20;;;8.00;78.90;;;;;;5072165;28;20225;-69
2023/04/08 03:25:44;;;;;;;5.32;4.20;;;8.00;79.80;;;;;;5071910;28;20190;-69
2023/04/08 03:28:11;;;;;;;9.20;4.25;;;7.90;79.70;;;;;;5071811;28;20217;-68
2023/04/08 03:30:38;;;;;;;7.65;3.92;;;7.90;79.50;;;;;;5072397;28;20221;-69
2023/04/08 03:33:06;;;;;;;4.50;3.58;;;7.90;80.00;;;;;;5071606;28;20185;-69
2023/04/08 03:35:36;;;;;;;5.68;4.05;;;8.00;80.10;;;;;;5071793;28;20194;-68
2023/04/08 03:38:03;;;;;;;6.07;3.88;;;7.90;80.00;;;;;;5071640;28;20186;-69
2023/04/08 03:40:30;;;;;;;5.32;4.25;;;7.90;80.00;;;;;;5071847;28;20190;-69
2023/04/08 03:42:57;;;;;;;5.15;3.85;;;7.90;79.90;;;;;;5069248;28;20226;-69
2023/04/08 03:45:25;;;;;;;4.72;3.47;;;7.90;80.60;;;;;;5051495;28;20213;-69
2023/04/08 03:47:52;;;;;;;4.70;3.65;;;7.90;79.80;;;;;;5051691;28;20232;-69
2023/04/08 03:50:20;;;;;;;6.15;3.53;;;7.90;81.00;;;;;;5067894;28;20272;-71
2023/04/08 03:52:48;;;;;;;5.38;3.50;;;7.80;80.00;;;;;;5071137;28;20186;-71
2023/04/08 03:55:16;;;;;;;5.90;3.95;;;7.80;80.00;;;;;;5071981;28;20193;-69
2023/04/08 03:57:44;;;;;;;5.32;3.67;;;7.80;80.00;;;;;;5071073;28;20186;-69
2023/04/08 04:00:13;;;;;;;4.85;3.55;;;7.80;79.80;;;;;;5071788;28;20247;-68
2023/04/08 04:02:40;;;;;;;6.28;3.50;;;7.80;79.70;;;;;;5071538;28;20193;-68
2023/04/08 04:05:08;;;;;;;5.07;3.63;;;7.80;80.70;;;;;;5071827;28;20189;-69
2023/04/08 04:07:35;;;;;;;4.50;3.35;;;7.80;80.00;;;;;;5072406;28;20217;-68
2023/04/08 04:10:05;;;;;;;5.43;3.90;;;7.70;79.80;;;;;;5075088;28;20308;-68
2023/04/08 04:12:32;;;;;;;5.47;3.10;;;7.70;80.40;;;;;;5074236;28;20190;-68
2023/04/08 04:14:59;;;;;;;4.35;3.35;;;7.70;80.40;;;;;;5075051;28;20194;-68
2023/04/08 04:17:26;;;;;;;4.30;3.42;;;7.60;80.10;;;;;;5074245;28;20181;-68
2023/04/08 04:19:53;;;;;;;4.93;3.30;;;7.60;80.50;;;;;;5074600;28;20190;-68
2023/04/08 04:22:21;;;;;;;4.13;2.95;;;7.50;81.20;;;;;;5074698;28;20208;-69
2023/04/08 04:24:48;;;;;;;4.70;3.10;;;7.50;81.20;;;;;;5074993;28;20549;-69
2023/04/08 04:27:17;;;;;;;6.95;3.72;;;7.50;81.40;;;;;;5074659;28;20186;-69
2023/04/08 04:29:45;;;;;;;4.50;3.40;;;7.50;81.50;;;;;;5075142;28;20196;-69
2023/04/08 04:32:12;;;;;;;8.45;3.40;;;7.40;81.80;;;;;;5074591;28;20654;-68
2023/04/08 04:34:43;;;;;;;5.57;3.40;;;7.40;82.10;;;;;;5074711;28;20554;-74
2023/04/08 04:37:10;;;;;;;5.03;2.97;;;7.30;81.90;;;;;;5074448;28;20248;-68
2023/04/08 04:39:38;;;;;;;6.45;4.35;;;7.30;82.20;;;;;;5074538;28;20198;-68
2023/04/08 04:42:06;;;;;;;6.00;3.70;;;7.30;82.20;;;;;;5073707;28;20205;-70
2023/04/08 04:44:35;;;;;;;4.10;2.97;;;7.30;82.40;;;;;;5074462;28;20646;-69
2023/04/08 04:47:06;;;;;;;4.68;2.55;;;7.20;82.60;;;;;;5073583;28;20255;-69
2023/04/08 04:49:33;;;;;;;3.28;2.20;;;7.20;83.00;;;;;;5074238;28;20217;-69
2023/04/08 04:52:00;;;;;;;4.38;2.88;;;7.20;83.20;;;;;;5073757;28;20178;-68
2023/04/08 04:54:28;;;;;;;5.07;3.25;;;7.20;83.20;;;;;;5074378;28;20194;-69
2023/04/08 04:56:55;;;;;;;4.80;3.05;;;7.20;83.60;;;;;;5074073;28;20715;-69
2023/04/08 04:59:22;;;;;;;4.82;2.95;;;7.20;83.50;;;;;;5074512;28;20190;-69
2023/04/08 05:01:51;;;;;;;4.93;3.00;;;7.20;83.00;;;;;;5073980;28;20553;-69
2023/04/08 05:04:18;;;;;;;8.35;4.20;;;7.20;82.80;;;;;;5074107;28;20276;-69
2023/04/08 05:06:48;;;;;;;6.30;4.30;;;7.30;82.60;;;;;;5073895;28;20194;-69
2023/04/08 05:09:15;;;;;;;5.35;3.70;;;7.30;82.60;;;;;;5074095;28;20237;-69
2023/04/08 05:11:43;;;;;;;4.30;3.42;;;7.30;82.80;;;;;;5073827;28;20224;-69
2023/04/08 05:14:11;;;;;;;4.03;2.95;;;7.30;82.90;;;;;;5073772;28;20205;-70
2023/04/08 05:16:39;;;;;;;5.05;3.42;;;7.40;82.80;;;;;;5073882;28;20192;-69
2023/04/08 05:19:12;;;;;;;3.75;2.55;;;7.40;82.60;;;;;;5072455;28;20763;-69
2023/04/08 05:21:40;;;;;;;3.10;2.75;;;7.40;82.60;;;;;;5073257;28;20186;-68
2023/04/08 05:24:07;;;;;;;6.95;2.42;;;7.50;82.50;;;;;;5074141;28;20651;-69
2023/04/08 05:26:35;;;;;;;3.17;2.47;;;7.50;82.50;;;;;;5073415;28;20644;-69
2023/04/08 05:29:02;;;;;;;4.10;3.05;;;7.50;82.20;;;;;;5072679;28;20267;-69
2023/04/08 05:31:29;;;;;;;3.90;3.15;;;7.60;82.20;;;;;;5072594;28;20182;-69
2023/04/08 05:33:56;;;;;;;3.95;2.67;;;7.60;82.30;;;;;;5073309;28;20185;-69
2023/04/08 05:36:26;;;;;;;4.20;2.97;;;7.60;81.60;;;;;;5073541;28;20546;-69
2023/04/08 05:38:53;;;;;;;3.90;2.47;;;7.60;80.70;;;;;;5073423;28;20229;-69
2023/04/08 05:41:20;;;;;;;6.28;3.17;;;7.60;80.30;;;;;;5056045;28;20590;-69
2023/04/08 05:43:47;;;;;;;4.03;2.67;;;7.60;80.10;;;;;;5073491;28;20194;-69
2023/04/08 05:46:15;;;;;;;4.57;2.70;;;7.60;80.30;;;;;;5072969;28;20593;-70
2023/04/08 05:48:44;;;;;;;5.05;3.70;;;7.60;80.90;;;;;;5073208;28;20221;-69
2023/04/08 05:51:17;;;;;;;6.40;3.90;;;7.60;80.90;;;;;;5072582;28;20794;-69
2023/04/08 05:53:48;;;;;;;6.45;4.10;;;7.60;81.30;;;;;;5073344;28;20190;-69
2023/04/08 05:56:21;;;;;;;7.85;4.20;;;7.70;81.30;;;;;;5072952;28;20189;-69
2023/04/08 05:58:48;;;;;;;5.50;3.70;;;7.70;81.50;;;;;;5073435;28;20554;-69
2023/04/08 06:01:20;;;;;;;5.93;4.35;;;7.80;81.40;;;;;;5071721;28;20438;-69
2023/04/08 06:03:47;;;;;;;8.30;3.70;;;7.80;81.40;;;;;;5073348;28;20590;-70
2023/04/08 06:06:15;;;;;;;8.02;4.10;;;7.90;81.20;;;;;;5072920;28;20189;-69
2023/04/08 06:08:42;;;;;;;5.22;3.80;;;8.00;81.30;;;;;;5072903;28;20261;-70
2023/04/08 06:11:11;;;;;;;5.35;4.13;;;8.00;81.20;;;;;;5071957;28;20197;-70
2023/04/08 06:13:38;;;;;;;5.20;3.55;;;8.10;81.20;;;;;;5073015;28;20193;-70
2023/04/08 06:16:13;;;;;;;5.30;3.40;;;8.10;81.30;;;;;;5072544;28;20197;-70
2023/04/08 06:18:40;;;;;;;6.30;3.35;;;8.20;81.70;;;;;;5073168;28;20701;-69
2023/04/08 06:21:07;;;;;;;3.50;2.67;;;8.30;81.60;;;;;;5068571;28;20243;-69
2023/04/08 06:23:34;;;;;;;4.30;3.40;;;8.40;80.90;;;;;;5070630;28;20185;-70
2023/04/08 06:26:01;;;;;;;5.85;3.00;;;8.40;80.40;;;;;;5070631;28;20186;-70
2023/04/08 06:28:31;;;;;;;5.75;3.95;;;8.50;80.10;;;;;;5071095;28;20217;-70
2023/04/08 06:30:58;;;;;;;4.30;3.05;;;8.60;80.00;;;;;;5069872;28;20194;-69
2023/04/08 06:33:25;;;;;;;4.93;3.20;;;8.70;79.90;;;;;;5070353;28;20194;-70
2023/04/08 06:36:01;;;;;;;4.68;3.15;;;8.70;80.10;;;;;;5070415;28;20239;-71
2023/04/08 06:38:28;;;;;;;5.60;3.25;;;8.70;80.50;;;;;;5067891;28;20283;-69
2023/04/08 06:40:55;;;;;;;4.40;3.42;;;8.70;80.80;;;;;;5070485;28;20193;-70
2023/04/08 06:43:24;;;;;;;4.22;2.97;;;8.80;81.80;;;;;;5070013;28;20194;-71
2023/04/08 06:45:53;;;;;;;5.57;3.63;;;8.80;80.30;;;;;;5070570;28;20243;-70
2023/04/08 06:48:22;;;;;;;6.28;3.58;;;8.80;79.60;;;;;;5071031;28;20304;-69
2023/04/08 06:50:49;;;;;;;5.60;3.97;;;8.90;79.40;;;;;;5070439;28;20192;-70
2023/04/08 06:53:16;;;;;;;5.53;3.55;;;9.00;78.20;;;;;;5070596;28;20603;-70
2023/04/08 06:55:43;;;;;;;4.97;3.67;;;9.00;77.30;;;;;;5070595;28;20192;-69
2023/04/08 06:58:11;;;;;;;5.85;3.38;;;9.00;77.90;;;;;;5070899;28;20193;-70
2023/04/08 07:00:38;;;;;;;5.60;3.90;;;9.10;78.30;;;;;;5069966;28;20188;-70
2023/04/08 07:03:07;;;;;;;7.32;4.55;;;9.10;77.70;;;;;;5055245;28;20201;-70
2023/04/08 07:05:37;;;;;;;5.15;3.78;;;9.20;77.50;;;;;;5068927;28;20204;-70
2023/04/08 07:08:05;;;;;;;5.65;3.60;;;9.20;77.30;;;;;;5068673;28;20243;-70
2023/04/08 07:10:37;;;;;;;8.30;3.30;;;9.20;77.50;;;;;;5069002;28;20318;-70
2023/04/08 07:13:09;;;;;;;6.13;3.90;;;9.20;77.10;;;;;;5068853;28;20200;-70
2023/04/08 07:15:44;;;;;;;5.28;4.15;;;9.20;76.70;;;;;;5069450;28;20640;-71
2023/04/08 07:18:12;;;;;;;4.50;3.33;;;9.20;77.00;;;;;;5067120;28;20188;-70
2023/04/08 07:20:40;;;;;;;6.88;4.55;;;9.20;76.80;;;;;;5070434;28;20540;-71
2023/04/08 07:23:08;;;;;;;5.38;4.28;;;9.30;77.20;;;;;;5070090;28;20192;-70
2023/04/08 07:25:35;;;;;;;7.82;4.13;;;9.30;77.30;;;;;;5066638;28;20671;-70
2023/04/08 07:28:02;;;;;;;5.18;3.95;;;9.40;78.10;;;;;;5070174;28;20194;-70
2023/04/08 07:30:32;;;;;;;8.02;5.10;;;9.50;78.40;;;;;;5070288;28;20270;-70
2023/04/08 07:33:00;;;;;;;8.32;4.57;;;9.60;78.20;;;;;;5066873;28;20225;-70
2023/04/08 07:35:28;;;;;;;11.27;4.35;;;9.70;77.10;;;;;;5070508;28;20194;-70
2023/04/08 07:37:56;;;;;;;5.45;4.25;;;9.80;77.30;;;;;;5070084;28;20580;-70
2023/04/08 07:40:24;;;;;;;6.90;4.50;;;9.90;76.60;;;;;;5069984;28;20182;-72
2023/04/08 07:42:51;;;;;;;4.68;3.97;;;9.90;75.00;;;;;;5067056;28;20200;-70
2023/04/08 07:45:19;;;;;;;6.00;4.15;;;10.00;73.40;;;;;;5074299;28;20625;-71
2023/04/08 07:47:46;;;;;;;6.05;3.92;;;10.00;73.10;;;;;;5074302;28;20193;-71
2023/04/08 07:50:19;;;;;;;5.57;4.50;;;10.00;72.80;;;;;;5073609;28;20225;-71
2023/04/08 07:52:47;;;;;;;5.05;3.85;;;10.00;72.70;;;;;;5070338;28;20567;-70
2023/04/08 07:55:15;;;;;;;5.68;3.78;;;9.90;74.00;;;;;;5074094;28;20185;-70
2023/04/08 07:57:42;;;;;;;6.18;4.20;;;9.90;73.90;;;;;;5072050;28;20243;-72
2023/04/08 08:00:10;;;;;;;6.40;4.35;;;9.90;74.60;;;;;;5072691;28;20225;-70
2023/04/08 08:02:37;;;;;;;6.20;3.92;;;9.90;75.20;;;;;;5072385;28;20191;-70
2023/04/08 08:05:05;;;;;;;8.77;5.07;;;9.90;75.40;;;;;;5071814;28;20177;-70
2023/04/08 08:07:32;;;;;;;6.20;4.45;;;9.90;75.70;;;;;;5072519;28;20220;-71
2023/04/08 08:10:00;;;;;;;7.40;5.28;;;9.90;76.10;;;;;;5072271;28;20225;-70
2023/04/08 08:12:27;;;;;;;7.13;5.20;;;10.00;75.50;;;;;;5073106;28;20229;-70
2023/04/08 08:14:58;;;;;;;8.10;5.10;;;10.10;75.20;;;;;;5072557;28;20232;-70
2023/04/08 08:17:29;;;;;;;8.13;5.50;;;10.20;74.70;;;;;;5072774;28;20580;-71
2023/04/08 08:19:56;;;;;;;6.95;5.30;;;10.30;74.20;;;;;;5072715;28;20193;-70
2023/04/08 08:22:27;;;;;;;7.05;5.00;;;10.40;73.90;;;;;;5073096;28;20185;-70
2023/04/08 08:24:58;;;;;;;6.50;4.82;;;10.50;73.60;;;;;;5072830;28;20197;-71
2023/04/08 08:27:27;;;;;;;8.82;5.60;;;10.60;72.40;;;;;;5069038;28;20722;-70
2023/04/08 08:29:55;;;;;;;8.32;4.93;;;10.60;72.70;;;;;;5071467;28;20220;-70
2023/04/08 08:32:23;;;;;;;6.10;5.47;;;10.70;73.30;;;;;;5071873;28;20186;-71
2023/04/08 08:34:50;;;;;;;6.32;5.22;;;10.80;72.30;;;;;;5073323;28;20235;-71
2023/04/08 08:37:17;;;;;;;7.07;4.97;;;10.90;72.30;;;;;;5072795;28;20186;-70
2023/04/08 08:39:44;;;;;;;7.10;5.53;;;10.90;71.10;;;;;;5073107;28;20194;-70
2023/04/08 08:42:20;;;;;;;6.75;5.68;;;10.90;71.20;;;;;;5073505;28;20241;-70
2023/04/08 08:44:49;;;;;;;7.32;5.65;;;10.90;71.90;;;;;;5072819;28;20197;-70
2023/04/08 08:47:16;;;;;;;9.75;6.35;;;10.80;72.70;;;;;;5073134;28;20198;-71
2023/04/08 08:49:44;;;;;;;9.93;6.00;;;10.80;74.00;;;;;;5068311;28;20214;-70
2023/04/08 08:52:15;;;;;;;6.25;5.30;;;10.70;74.00;;;;;;5073432;28;20213;-70
2023/04/08 08:54:43;;;;;;;8.05;5.90;;;10.70;74.80;;;;;;5067169;28;20208;-71
2023/04/08 08:57:18;;;;;;;8.50;5.50;;;10.70;75.70;;;;;;5071339;28;20645;-71
2023/04/08 08:59:50;;;;;;;8.70;6.18;;;10.60;76.20;;;;;;5071500;28;20300;-70
2023/04/08 09:02:27;;;;;;;10.75;7.10;;;10.50;77.00;;;;;;5071565;28;20640;-72
2023/04/08 09:04:59;;;;;;;6.57;4.53;;;10.40;78.10;;;;;;5071668;28;20193;-75
2023/04/08 09:07:27;;;;;;;7.57;5.32;;;10.40;78.30;;;;;;5071883;28;20182;-71
2023/04/08 09:09:55;;;;;;;13.93;9.63;;;10.20;76.20;;;;;;5067363;28;20737;-70
2023/04/08 09:12:23;;;;;;;15.23;11.40;;;10.10;76.00;;;;;;5072093;28;20308;-71
2023/04/08 09:15:02;;;;;;;16.25;12.25;;;9.90;76.00;;;;;;5071526;28;20177;-72
2023/04/08 09:17:34;;;;;;;17.27;12.75;;;9.70;75.00;;;;;;5068341;28;20189;-74
2023/04/08 09:20:10;;;;;;;17.42;12.93;;;9.50;76.20;;;;;;5071546;28;20181;-70
2023/04/08 09:22:57;;;;;;;14.95;12.13;;;9.40;77.60;;;;;;5071401;28;20197;-70
2023/04/08 09:25:25;;;;;;;16.35;12.35;;;9.30;77.30;;;;;;5068937;28;20254;-71
2023/04/08 09:27:53;;;;;;;17.17;11.80;;;9.20;78.70;;;;;;5070054;28;20190;-71
2023/04/08 09:30:23;;;;;;;15.35;11.93;;;9.20;79.40;;;;;;5070611;28;20217;-72
2023/04/08 09:32:51;;;;;;;15.43;13.00;;;9.20;79.40;;;;;;5069512;28;20186;-71
2023/04/08 09:35:19;;;;;;;17.65;12.32;;;9.10;78.30;;;;;;5070895;28;20189;-71
2023/04/08 09:37:47;;;;;;;18.10;14.05;;;9.10;76.60;;;;;;5070589;28;20194;-70
2023/04/08 09:40:15;;;;;;;14.70;11.70;;;9.00;75.30;;;;;;5070083;28;20649;-70
2023/04/08 09:42:47;;;;;;;15.02;12.60;;;8.80;75.70;;;;;;5070816;28;20190;-70
2023/04/08 09:45:16;;;;;;;15.23;10.93;;;8.80;76.70;;;;;;5071862;28;20229;-70
2023/04/08 09:47:55;;;;;;;14.20;11.95;;;8.70;77.00;;;;;;5073010;28;20655;-70
2023/04/08 09:50:27;;;;;;;19.70;13.27;;;8.60;77.60;;;;;;5072890;28;20698;-71
2023/04/08 09:53:01;;;;;;;16.98;10.80;;;8.60;78.00;;;;;;5071695;28;20178;-71
2023/04/08 09:55:34;;;;;;;13.55;10.70;;;8.50;77.70;;;;;;5072177;28;20182;-71
2023/04/08 09:58:04;;;;;;;15.10;11.43;;;8.50;76.80;;;;;;5070849;28;20239;-71
2023/04/08 10:00:39;;;;;;;12.32;9.82;;;8.40;76.60;;;;;;5071775;28;20212;-70
2023/04/08 10:03:15;;;;;;;14.90;10.48;;;8.40;76.10;;;;;;5072098;28;20646;-71
2023/04/08 10:05:45;;;;;;;15.05;10.85;;;8.30;76.60;;;;;;5069646;28;20193;-71
2023/04/08 10:08:16;;;;;;;17.50;12.23;;;8.40;77.50;;;;;;5072102;28;20228;-70
2023/04/08 10:10:43;;;;;;;15.43;11.77;;;8.40;77.70;;;;;;5071439;28;20220;-71
2023/04/08 10:13:11;;;;;;;13.80;11.38;;;8.50;78.00;;;;;;5072529;28;20221;-71
2023/04/08 10:15:39;;;;;;;16.10;11.90;;;8.50;77.30;;;;;;5072021;28;20198;-71
2023/04/08 10:18:33;;;;;;;18.05;12.27;;;8.60;77.20;;;;;;5072194;28;20233;-70
2023/04/08 10:21:01;;;;;;;16.55;11.65;;;8.60;78.30;;;;;;5072353;28;20196;-70
2023/04/08 10:23:57;;;;;;;16.88;13.90;;;8.60;78.60;;;;;;5072529;28;20589;-71
2023/04/08 10:26:33;;;;;;;19.08;13.05;;;8.60;78.50;;;;;;5072886;28;20193;-71
2023/04/08 10:29:31;;;;;;;16.67;10.00;;;8.60;77.90;;;;;;5072831;28;20247;-70
2023/04/08 10:32:00;;;;;;;16.92;12.70;;;8.60;78.50;;;;;;5072674;28;20193;-70
2023/04/08 10:34:30;;;;;;;20.90;13.30;;;8.70;79.10;;;;;;5072814;28;20540;-71
2023/04/08 10:37:02;;;;;;;15.38;12.18;;;8.70;79.60;;;;;;5072794;28;20242;-71
2023/04/08 10:39:31;;;;;;;14.02;11.90;;;8.80;80.00;;;;;;5072593;28;20194;-71
2023/04/08 10:42:01;;;;;;;19.98;13.13;;;8.80;80.00;;;;;;5072665;28;20233;-70
2023/04/08 10:44:28;;;;;;;15.45;11.60;;;8.90;79.80;;;;;;5072458;28;20189;-71
2023/04/08 10:46:55;;;;;;;14.82;12.43;;;8.90;78.40;;;;;;5072668;28;20190;-70
2023/04/08 10:49:22;;;;;;;14.38;12.63;;;8.90;78.10;;;;;;5069861;28;20645;-71
2023/04/08 10:51:51;;;;;;;18.42;12.43;;;9.00;76.70;;;;;;5071953;28;20194;-71
2023/04/08 10:54:18;;;;;;;17.83;14.05;;;9.10;77.70;;;;;;5071497;28;20193;-71
2023/04/08 10:56:48;;;;;;;15.40;12.68;;;9.20;79.00;;;;;;5072150;28;20198;-70
2023/04/08 10:59:16;;;;;;;15.30;11.23;;;9.30;78.20;;;;;;5072315;28;20193;-71
2023/04/08 11:01:45;;;;;;;16.00;13.00;;;9.40;77.90;;;;;;5072659;28;20201;-71
2023/04/08 11:04:17;;;;;;;16.55;13.55;;;9.50;79.00;;;;;;5072563;28;20561;-71
2023/04/08 11:06:46;;;;;;;14.88;12.45;;;9.50;79.10;;;;;;5071253;28;20251;-71
2023/04/08 11:09:16;;;;;;;14.90;12.40;;;9.60;76.20;;;;;;5069972;28;20222;-71
2023/04/08 11:11:44;;;;;;;16.92;12.35;;;9.60;75.00;;;;;;5069679;28;20248;-72
2023/04/08 11:14:13;;;;;;;14.48;12.55;;;9.60;74.40;;;;;;5064932;28;20591;-71
2023/04/08 11:16:40;;;;;;;19.25;13.43;;;9.70;74.10;;;;;;5069956;28;20213;-72
2023/04/08 11:19:09;;;;;;;16.20;12.85;;;9.70;74.70;;;;;;5073354;28;20194;-71
2023/04/08 11:21:37;;;;;;;17.67;12.70;;;9.70;74.70;;;;;;5073272;28;20189;-71
2023/04/08 11:24:10;;;;;;;14.90;11.85;;;9.80;75.20;;;;;;5071054;28;20741;-71
2023/04/08 11:26:40;;;;;;;16.23;12.98;;;9.90;74.40;;;;;;5072124;28;20194;-71
2023/04/08 11:29:14;;;;;;;17.38;12.88;;;9.90;73.20;;;;;;5071836;28;20549;-71
2023/04/08 11:31:43;;;;;;;16.02;12.60;;;9.90;74.70;;;;;;5066447;28;20252;-70
2023/04/08 11:34:11;;;;;;;16.20;12.68;;;10.00;72.40;;;;;;5072260;28;20205;-71
2023/04/08 11:36:40;;;;;;;14.75;13.18;;;10.10;71.00;;;;;;5072892;28;20224;-70
2023/04/08 11:39:09;;;;;;;16.33;13.95;;;10.20;70.50;;;;;;5072150;28;20190;-71
2023/04/08 11:41:38;;;;;;;17.80;13.05;;;10.40;68.90;;;;;;5072481;28;20213;-71
2023/04/08 11:44:07;;;;;;;18.42;15.10;;;10.40;69.20;;;;;;5071666;28;20197;-71
2023/04/08 11:46:35;;;;;;;16.20;13.80;;;10.40;66.40;;;;;;5072595;28;20232;-71
2023/04/08 11:49:07;;;;;;;16.38;13.23;;;10.40;67.50;;;;;;5072328;28;20190;-72
2023/04/08 11:51:36;;;;;;;18.60;14.07;;;10.20;68.10;;;;;;5071916;28;20706;-71
2023/04/08 11:54:06;;;;;;;24.23;16.33;;;10.10;68.60;;;;;;5072284;28;20217;-71
2023/04/08 11:56:45;;;;;;;25.73;17.02;;;9.70;70.00;;;;;;5073006;28;20197;-71
2023/04/08 11:59:14;;;;;;;26.98;17.48;;;9.60;71.10;;;;;;5069282;28;20193;-70
2023/04/08 12:01:42;;;;;;;24.83;16.80;;;9.30;72.30;;;;;;5072385;28;20277;-71
2023/04/08 12:04:11;;;;;;;20.48;14.23;;;9.10;74.00;;;;;;5071795;28;20196;-70
2023/04/08 12:06:38;;;;;;;16.80;13.90;;;8.90;74.00;;;;;;5072961;28;20650;-70
2023/04/08 12:09:05;;;;;;;17.63;15.20;;;8.80;75.50;;;;;;5072778;28;20275;-70
2023/04/08 12:11:32;;;;;;;20.67;15.32;;;8.70;77.20;;;;;;5072605;28;20268;-72
2023/04/08 12:14:32;;;;;;;18.08;13.63;;;8.70;77.20;;;;;;5072359;28;20225;-72
2023/04/08 12:16:59;;;;;;;19.10;14.23;;;8.50;77.60;;;;;;5072480;28;20189;-70
2023/04/08 12:19:27;;;;;;;15.40;13.20;;;8.40;78.80;;;;;;5071650;28;20194;-70
2023/04/08 12:21:54;;;;;;;16.23;13.57;;;8.40;79.60;;;;;;5072092;28;20190;-72
2023/04/08 12:24:21;;;;;;;19.00;13.05;;;8.30;80.40;;;;;;5071612;28;20186;-70
2023/04/08 12:26:48;;;;;;;17.73;13.35;;;8.30;81.50;;;;;;5072062;28;20710;-70
2023/04/08 12:29:16;;;;;;;19.02;14.60;;;8.30;81.40;;;;;;5070811;28;21049;-70
2023/04/08 12:31:44;;;;;;;17.20;12.50;;;8.30;83.00;;;;;;5071039;28;20275;-70
2023/04/08 12:34:12;;;;;;;19.90;15.20;;;8.20;83.30;;;;;;5071745;28;20197;-72
2023/04/08 12:36:40;;;;;;;16.80;13.35;;;8.10;84.00;;;;;;5070827;28;20285;-71
2023/04/08 12:39:07;;;;;;;18.75;14.32;;;8.10;84.60;;;;;;5069920;28;20203;-70
2023/04/08 12:41:35;;;;;;;20.55;15.32;;;8.10;84.20;;;;;;5071878;28;20258;-71
2023/04/08 12:44:02;;;;;;;21.48;15.77;;;7.90;86.40;;;;;;5070970;28;20532;-71
2023/04/08 12:46:29;;;;;;;19.25;14.93;;;8.00;88.10;;;;;;5072016;28;20194;-71
2023/04/08 12:48:58;;;;;;;15.40;13.68;;;8.10;88.00;;;;;;5070992;28;20193;-72
2023/04/08 12:51:25;;;;;;;17.10;13.07;;;8.10;86.70;;;;;;5067471;28;20221;-72
2023/04/08 12:53:52;;;;;;;19.33;14.30;;;8.10;87.70;;;;;;5070638;28;20247;-70
2023/04/08 12:56:20;;;;;;;22.20;17.50;;;8.10;87.60;;;;;;5072190;28;20243;-71
2023/04/08 12:58:47;;;;;;;18.75;15.38;;;8.00;89.10;;;;;;5070324;28;20194;-71
2023/04/08 13:01:14;;;;;;;19.60;14.07;;;8.10;90.20;;;;;;5070707;28;20678;-71